BAW9ZY EGLL-CYYZ
Flight info
| Callsign | BAW9ZY |
|---|---|
| Flight time | N/A |
| Altitude | 36000 |
| Route | CPT L9 BIBPE DCT BUCGO DCT FELCA DCT FADZU DCT OFSOX DCT BANBA DCT DOLIP DCT LIMRI/M085F360 DCT 52N020W 52N030W 52N040W 50N050W DCT ELSIR/N0482F360 DCT YQX/N0478F380 DCT MIILS/N0486F400 DCT LETAK IMEBA9 |
| Aircraft | A35K/H-SDE2E3GHIJ3J4J5LM1ORWXY/LB1D1 |
Departure
| Time | 2026-05-06 11:09 |
|---|---|
| Airport | London Heathrow Airport (EGLL) |
Arrival
| Time | N/A |
|---|---|
| Airport | Toronto Pearson International Airport (CYYZ) |
| Time | Latitude | Longitude | Altitude | Speed | Heading |
|---|---|---|---|---|---|
| 2026-05-06 10:23 | 51.47053 | -0.48017 | 95 ft | 0 kts | 270° |
| 2026-05-06 10:58 | 51.47053 | -0.47986 | 93 ft | 3 kts | 270° |
| 2026-05-06 10:59 | 51.47053 | -0.47953 | 94 ft | 3 kts | 270° |
| 2026-05-06 10:59 | 51.47054 | -0.47925 | 93 ft | 2 kts | 269° |
| 2026-05-06 10:59 | 51.47056 | -0.47894 | 92 ft | 3 kts | 242° |
| 2026-05-06 10:59 | 51.47067 | -0.47873 | 94 ft | 3 kts | 196° |
| 2026-05-06 11:00 | 51.47086 | -0.47870 | 92 ft | 3 kts | 180° |
| 2026-05-06 11:00 | 51.47106 | -0.47870 | 92 ft | 3 kts | 180° |
| 2026-05-06 11:00 | 51.47114 | -0.47870 | 92 ft | 1 kts | 180° |
| 2026-05-06 11:03 | 51.47110 | -0.47870 | 94 ft | 2 kts | 180° |
| 2026-05-06 11:04 | 51.47075 | -0.47870 | 94 ft | 8 kts | 180° |
| 2026-05-06 11:04 | 51.46995 | -0.47869 | 94 ft | 14 kts | 180° |
| 2026-05-06 11:04 | 51.46891 | -0.47868 | 92 ft | 16 kts | 180° |
| 2026-05-06 11:04 | 51.46779 | -0.47873 | 92 ft | 13 kts | 197° |
| 2026-05-06 11:05 | 51.46742 | -0.47994 | 92 ft | 14 kts | 268° |
| 2026-05-06 11:05 | 51.46743 | -0.48058 | 92 ft | 1 kts | 271° |
| 2026-05-06 11:05 | 51.46744 | -0.48140 | 92 ft | 14 kts | 270° |
| 2026-05-06 11:05 | 51.46744 | -0.48355 | 92 ft | 24 kts | 270° |
| 2026-05-06 11:06 | 51.46742 | -0.48627 | 95 ft | 23 kts | 270° |
| 2026-05-06 11:06 | 51.46740 | -0.48683 | 92 ft | 8 kts | 261° |
| 2026-05-06 11:06 | 51.46666 | -0.48744 | 96 ft | 15 kts | 183° |
| 2026-05-06 11:06 | 51.46614 | -0.48759 | 95 ft | 0 kts | 197° |
| 2026-05-06 11:07 | 51.46610 | -0.48761 | 92 ft | 2 kts | 197° |
| 2026-05-06 11:07 | 51.46556 | -0.48785 | 95 ft | 15 kts | 190° |
| 2026-05-06 11:08 | 51.46492 | -0.48746 | 94 ft | 16 kts | 127° |
| 2026-05-06 11:08 | 51.46479 | -0.48569 | 92 ft | 17 kts | 90° |
| 2026-05-06 11:08 | 51.46480 | -0.48069 | 97 ft | 72 kts | 90° |
| 2026-05-06 11:08 | 51.46483 | -0.47363 | 92 ft | 114 kts | 90° |
| 2026-05-06 11:09 | 51.46502 | -0.45207 | 329 ft | 161 kts | 87° |
| 2026-05-06 11:09 | 51.46524 | -0.43453 | 1041 ft | 155 kts | 85° |
| 2026-05-06 11:09 | 51.46529 | -0.41676 | 1513 ft | 171 kts | 90° |
| 2026-05-06 11:09 | 51.46380 | -0.40346 | 1685 ft | 188 kts | 103° |
| 2026-05-06 11:10 | 51.45694 | -0.38405 | 1972 ft | 217 kts | 130° |
| 2026-05-06 11:10 | 51.44322 | -0.37069 | 2229 ft | 249 kts | 162° |
| 2026-05-06 11:10 | 51.42528 | -0.37098 | 2568 ft | 275 kts | 196° |
| 2026-05-06 11:10 | 51.40829 | -0.38658 | 2825 ft | 297 kts | 226° |
| 2026-05-06 11:11 | 51.39793 | -0.41436 | 3888 ft | 283 kts | 256° |
| 2026-05-06 11:11 | 51.39727 | -0.44466 | 4873 ft | 266 kts | 287° |
| 2026-05-06 11:11 | 51.40286 | -0.47191 | 5818 ft | 258 kts | 292° |
| 2026-05-06 11:11 | 51.40883 | -0.49960 | 6131 ft | 267 kts | 289° |
| 2026-05-06 11:12 | 51.41297 | -0.52905 | 6018 ft | 266 kts | 282° |
| 2026-05-06 11:12 | 51.41604 | -0.55792 | 5989 ft | 267 kts | 282° |
| 2026-05-06 11:12 | 51.41918 | -0.58752 | 5991 ft | 266 kts | 282° |
| 2026-05-06 11:12 | 51.42231 | -0.61639 | 5991 ft | 267 kts | 282° |
| 2026-05-06 11:13 | 51.42552 | -0.64563 | 5990 ft | 266 kts | 282° |
| 2026-05-06 11:13 | 51.42874 | -0.67489 | 5988 ft | 267 kts | 282° |
| 2026-05-06 11:13 | 51.43198 | -0.70407 | 5996 ft | 266 kts | 283° |
| 2026-05-06 11:13 | 51.43520 | -0.73332 | 5989 ft | 267 kts | 282° |
| 2026-05-06 11:14 | 51.43846 | -0.76254 | 5987 ft | 267 kts | 283° |
| 2026-05-06 11:14 | 51.44200 | -0.79172 | 5987 ft | 266 kts | 284° |
| 2026-05-06 11:14 | 51.44561 | -0.82072 | 5990 ft | 266 kts | 284° |
| 2026-05-06 11:14 | 51.44924 | -0.84991 | 5990 ft | 266 kts | 284° |
| 2026-05-06 11:15 | 51.45281 | -0.87906 | 5989 ft | 267 kts | 283° |
| 2026-05-06 11:15 | 51.45629 | -0.90823 | 5988 ft | 267 kts | 283° |
| 2026-05-06 11:15 | 51.45963 | -0.93748 | 5993 ft | 266 kts | 283° |
| 2026-05-06 11:15 | 51.46294 | -0.96665 | 5992 ft | 266 kts | 283° |
| 2026-05-06 11:16 | 51.46627 | -0.99585 | 5989 ft | 266 kts | 283° |
| 2026-05-06 11:16 | 51.46961 | -1.02502 | 5986 ft | 266 kts | 283° |
| 2026-05-06 11:16 | 51.47293 | -1.05422 | 5989 ft | 266 kts | 283° |
| 2026-05-06 11:16 | 51.47623 | -1.08337 | 5989 ft | 266 kts | 283° |
| 2026-05-06 11:17 | 51.47954 | -1.11257 | 5995 ft | 266 kts | 283° |
| 2026-05-06 11:17 | 51.48286 | -1.14179 | 5996 ft | 266 kts | 283° |
| 2026-05-06 11:17 | 51.48615 | -1.17097 | 6000 ft | 266 kts | 283° |
| 2026-05-06 11:17 | 51.48966 | -1.20014 | 5998 ft | 265 kts | 287° |
| 2026-05-06 11:18 | 51.49716 | -1.22663 | 6040 ft | 259 kts | 308° |
| 2026-05-06 11:18 | 51.50860 | -1.24880 | 6345 ft | 259 kts | 315° |
| 2026-05-06 11:18 | 51.52158 | -1.26916 | 7040 ft | 261 kts | 319° |
| 2026-05-06 11:18 | 51.53509 | -1.28864 | 7905 ft | 262 kts | 320° |
| 2026-05-06 11:19 | 51.54885 | -1.30814 | 8725 ft | 265 kts | 320° |
| 2026-05-06 11:19 | 51.56267 | -1.32796 | 9535 ft | 268 kts | 319° |
| 2026-05-06 11:19 | 51.57655 | -1.34827 | 10290 ft | 274 kts | 318° |
| 2026-05-06 11:19 | 51.59101 | -1.36971 | 10714 ft | 292 kts | 317° |
| 2026-05-06 11:20 | 51.60542 | -1.39444 | 11049 ft | 313 kts | 307° |
| 2026-05-06 11:20 | 51.61787 | -1.42439 | 11410 ft | 332 kts | 302° |
| 2026-05-06 11:20 | 51.62974 | -1.45728 | 11789 ft | 348 kts | 299° |
| 2026-05-06 11:20 | 51.64134 | -1.49208 | 12353 ft | 357 kts | 298° |
| 2026-05-06 11:21 | 51.65287 | -1.52777 | 13014 ft | 362 kts | 297° |
| 2026-05-06 11:21 | 51.66451 | -1.56396 | 13703 ft | 366 kts | 297° |
| 2026-05-06 11:21 | 51.67634 | -1.60050 | 14383 ft | 370 kts | 297° |
| 2026-05-06 11:21 | 51.68838 | -1.63736 | 15052 ft | 374 kts | 297° |
| 2026-05-06 11:22 | 51.69927 | -1.67547 | 15721 ft | 376 kts | 289° |
| 2026-05-06 11:22 | 51.70590 | -1.71644 | 16389 ft | 379 kts | 281° |
| 2026-05-06 11:22 | 51.71041 | -1.75854 | 17028 ft | 382 kts | 278° |
| 2026-05-06 11:22 | 51.71382 | -1.80058 | 17650 ft | 385 kts | 276° |
| 2026-05-06 11:23 | 51.71677 | -1.84364 | 18328 ft | 388 kts | 276° |
| 2026-05-06 11:23 | 51.71958 | -1.88705 | 18960 ft | 392 kts | 276° |
| 2026-05-06 11:23 | 51.72244 | -1.93100 | 19584 ft | 396 kts | 276° |
| 2026-05-06 11:23 | 51.72537 | -1.97529 | 20192 ft | 399 kts | 276° |
| 2026-05-06 11:24 | 51.72841 | -2.02010 | 20762 ft | 404 kts | 276° |
| 2026-05-06 11:24 | 51.73154 | -2.06531 | 21336 ft | 408 kts | 276° |
| 2026-05-06 11:24 | 51.73471 | -2.11099 | 21931 ft | 411 kts | 276° |
| 2026-05-06 11:24 | 51.73792 | -2.15710 | 22489 ft | 415 kts | 276° |
| 2026-05-06 11:25 | 51.74113 | -2.20357 | 23040 ft | 419 kts | 276° |
| 2026-05-06 11:25 | 51.74435 | -2.25047 | 23568 ft | 422 kts | 276° |
| 2026-05-06 11:25 | 51.74760 | -2.29782 | 24106 ft | 426 kts | 276° |
| 2026-05-06 11:25 | 51.75083 | -2.34556 | 24632 ft | 429 kts | 276° |
| 2026-05-06 11:26 | 51.75408 | -2.39369 | 25142 ft | 433 kts | 275° |
| 2026-05-06 11:26 | 51.75732 | -2.44208 | 25632 ft | 436 kts | 276° |
| 2026-05-06 11:26 | 51.76057 | -2.49102 | 26093 ft | 440 kts | 276° |
| 2026-05-06 11:26 | 51.76381 | -2.54028 | 26558 ft | 443 kts | 275° |
| 2026-05-06 11:27 | 51.76707 | -2.58989 | 27041 ft | 446 kts | 276° |
| 2026-05-06 11:27 | 51.77034 | -2.63981 | 27536 ft | 448 kts | 276° |
| 2026-05-06 11:27 | 51.77363 | -2.69008 | 28020 ft | 451 kts | 275° |
| 2026-05-06 11:27 | 51.77689 | -2.74060 | 28460 ft | 454 kts | 275° |
| 2026-05-06 11:28 | 51.78012 | -2.79135 | 28878 ft | 457 kts | 275° |
| 2026-05-06 11:28 | 51.78336 | -2.84257 | 29283 ft | 459 kts | 275° |
| 2026-05-06 11:28 | 51.78660 | -2.89400 | 29671 ft | 462 kts | 275° |
| 2026-05-06 11:28 | 51.78984 | -2.94578 | 30046 ft | 465 kts | 275° |
| 2026-05-06 11:29 | 51.79307 | -2.99776 | 30446 ft | 466 kts | 275° |
| 2026-05-06 11:29 | 51.79628 | -3.05005 | 30785 ft | 469 kts | 275° |
| 2026-05-06 11:29 | 51.79949 | -3.10260 | 31109 ft | 471 kts | 275° |
| 2026-05-06 11:29 | 51.80270 | -3.15537 | 31436 ft | 472 kts | 275° |
| 2026-05-06 11:30 | 51.80590 | -3.20803 | 31897 ft | 470 kts | 275° |
| 2026-05-06 11:30 | 51.80905 | -3.26054 | 32377 ft | 468 kts | 275° |
| 2026-05-06 11:30 | 51.81215 | -3.31281 | 32828 ft | 466 kts | 275° |
| 2026-05-06 11:30 | 51.81523 | -3.36485 | 33207 ft | 465 kts | 275° |
| 2026-05-06 11:31 | 51.81828 | -3.41687 | 33595 ft | 464 kts | 275° |
| 2026-05-06 11:31 | 51.82022 | -3.45013 | 33832 ft | 463 kts | 275° |